Time;durP1;ratioP1;P1;durP2;ratioP2;P2;SDS_P1;SDS_P2;PMS_P1;PMS_P2;Temp;Humidity;BMP_temperature;BMP_pressure;BME280_temperature;BME280_humidity;BME280_pressure;Samples;Min_cycle;Max_cycle;Signal;HPM_P1;HPM_P2
2022/11/07 00:01:40;;;;;;;10.33;5.77;;;11.40;99.90;;;;;;5020384;28;20580;-76
2022/11/07 00:04:07;;;;;;;9.77;5.60;;;11.40;99.90;;;;;;5018342;28;20230;-75
2022/11/07 00:06:37;;;;;;;9.70;6.07;;;11.50;99.90;;;;;;5009375;28;20309;-74
2022/11/07 00:09:04;;;;;;;7.63;5.23;;;11.50;99.90;;;;;;5020361;28;20224;-76
2022/11/07 00:11:32;;;;;;;13.30;5.10;;;11.50;99.90;;;;;;5012492;28;20268;-75
2022/11/07 00:13:59;;;;;;;13.33;5.43;;;11.50;99.90;;;;;;5019259;28;20301;-75
2022/11/07 00:16:27;;;;;;;9.13;5.30;;;11.50;99.90;;;;;;5022781;28;20197;-76
2022/11/07 00:18:54;;;;;;;8.53;5.23;;;11.50;99.90;;;;;;5020961;28;20214;-76
2022/11/07 00:21:21;;;;;;;9.83;5.07;;;11.60;99.90;;;;;;5019812;28;20682;-76
2022/11/07 00:23:48;;;;;;;11.80;5.57;;;11.50;99.90;;;;;;5024054;28;20701;-75
2022/11/07 00:26:18;;;;;;;12.07;5.37;;;11.50;99.90;;;;;;5020277;28;20296;-75
2022/11/07 00:28:46;;;;;;;9.10;5.10;;;11.60;99.90;;;;;;5022372;28;20249;-75
2022/11/07 00:31:14;;;;;;;11.40;4.83;;;11.50;99.90;;;;;;5025756;28;20288;-76
2022/11/07 00:33:41;;;;;;;9.63;5.90;;;11.50;99.90;;;;;;5026029;28;20197;-77
2022/11/07 00:36:14;;;;;;;8.93;4.93;;;11.40;99.90;;;;;;5021517;28;20703;-74
2022/11/07 00:38:41;;;;;;;9.43;4.97;;;11.40;99.90;;;;;;5024874;28;20202;-74
2022/11/07 00:41:08;;;;;;;10.50;5.07;;;11.40;99.90;;;;;;5022204;28;20210;-75
2022/11/07 00:43:35;;;;;;;10.53;5.07;;;11.40;99.90;;;;;;5025079;28;20225;-73
2022/11/07 00:46:03;;;;;;;11.27;5.60;;;11.40;99.90;;;;;;5025751;28;20233;-75
2022/11/07 00:48:31;;;;;;;8.73;5.10;;;11.40;99.90;;;;;;5024374;28;20565;-76
2022/11/07 00:51:09;;;;;;;7.33;5.00;;;11.40;99.90;;;;;;5004876;28;20250;-76
2022/11/07 00:53:37;;;;;;;8.80;4.50;;;11.40;99.90;;;;;;5022637;28;20242;-75
2022/11/07 00:56:10;;;;;;;8.80;4.83;;;11.50;99.90;;;;;;5025436;28;20587;-74
2022/11/07 00:58:37;;;;;;;9.90;4.63;;;11.50;99.90;;;;;;5012131;28;20230;-77
2022/11/07 01:01:10;;;;;;;11.03;5.20;;;11.50;99.90;;;;;;5023373;28;20259;-76
2022/11/07 01:06:29;;;;;;;9.97;4.57;;;11.50;99.90;;;;;;5025112;28;20734;-76
2022/11/07 01:08:56;;;;;;;12.57;5.23;;;11.50;99.90;;;;;;5006507;28;20257;-74
2022/11/07 01:11:27;;;;;;;8.00;4.63;;;11.50;99.90;;;;;;5025873;28;20249;-76
2022/11/07 01:13:58;;;;;;;10.40;4.40;;;11.50;99.90;;;;;;5023356;28;20202;-75
2022/11/07 01:16:26;;;;;;;9.80;5.10;;;11.50;99.90;;;;;;5028834;28;20284;-75
2022/11/07 01:18:58;;;;;;;8.43;4.90;;;11.50;99.90;;;;;;5023996;28;20555;-75
2022/11/07 01:21:25;;;;;;;12.53;5.07;;;11.50;99.90;;;;;;5022244;28;20592;-75
2022/11/07 01:23:52;;;;;;;7.67;4.47;;;11.50;99.90;;;;;;5025348;28;20227;-75
2022/11/07 01:26:18;;;;;;;9.60;5.40;;;11.50;99.90;;;;;;5025843;28;20206;-76
2022/11/07 01:28:46;;;;;;;8.13;4.57;;;11.50;99.90;;;;;;5021797;28;20300;-75
2022/11/07 01:31:15;;;;;;;8.93;4.90;;;11.60;99.90;;;;;;5027679;28;20202;-76
2022/11/07 01:33:44;;;;;;;12.90;4.67;;;11.60;99.90;;;;;;5023011;28;20640;-75
2022/11/07 01:36:14;;;;;;;7.70;4.10;;;11.60;99.90;;;;;;5008843;28;20248;-76
2022/11/07 01:38:43;;;;;;;8.57;4.00;;;11.60;99.90;;;;;;5006743;28;20535;-76
2022/11/07 01:41:24;;;;;;;6.73;4.30;;;11.70;99.90;;;;;;5012835;28;20237;-74
2022/11/07 01:44:22;;;;;;;10.70;4.43;;;11.70;99.90;;;;;;5020603;28;20246;-75
2022/11/07 01:46:52;;;;;;;8.13;3.63;;;11.70;99.90;;;;;;4998451;28;20233;-74
2022/11/07 01:49:22;;;;;;;6.70;4.37;;;11.70;99.90;;;;;;5023152;28;20256;-75
2022/11/07 01:52:06;;;;;;;8.00;4.00;;;11.70;99.90;;;;;;5025315;28;20282;-76
2022/11/07 01:54:41;;;;;;;10.37;3.90;;;11.80;99.90;;;;;;5023713;28;20333;-74
2022/11/07 01:57:14;;;;;;;9.00;4.10;;;11.80;99.90;;;;;;5021535;28;20316;-76
2022/11/07 01:59:41;;;;;;;8.37;4.17;;;11.80;99.90;;;;;;5024053;28;20624;-74
2022/11/07 02:02:08;;;;;;;10.57;4.40;;;11.80;99.90;;;;;;5024556;28;20281;-75
2022/11/07 02:04:36;;;;;;;10.23;4.17;;;11.80;99.90;;;;;;5006408;28;20908;-76
2022/11/07 02:07:11;;;;;;;9.67;4.37;;;11.80;99.90;;;;;;5023057;28;20217;-75
2022/11/07 02:09:40;;;;;;;7.73;4.03;;;11.90;99.90;;;;;;5027865;28;20201;-76
2022/11/07 02:12:07;;;;;;;8.53;3.57;;;11.90;99.90;;;;;;5024444;28;20673;-75
2022/11/07 02:14:34;;;;;;;8.17;3.93;;;11.90;99.90;;;;;;5020298;28;20804;-76
2022/11/07 02:17:02;;;;;;;8.07;3.70;;;11.90;99.90;;;;;;5021609;28;20209;-76
2022/11/07 02:19:39;;;;;;;8.90;4.97;;;11.90;99.90;;;;;;5021139;28;20214;-75
2022/11/07 02:22:30;;;;;;;13.00;4.17;;;11.90;99.90;;;;;;5026214;28;20332;-74
2022/11/07 02:25:01;;;;;;;8.67;3.43;;;11.90;99.90;;;;;;5022775;28;20260;-74
2022/11/07 02:27:30;;;;;;;9.90;4.23;;;11.80;99.90;;;;;;5016777;28;20217;-75
2022/11/07 02:30:10;;;;;;;10.33;4.33;;;11.80;99.90;;;;;;5022514;28;20240;-75
2022/11/07 02:32:37;;;;;;;11.60;4.70;;;11.90;99.90;;;;;;5019547;28;20729;-74
2022/11/07 02:35:27;;;;;;;9.60;3.93;;;11.90;99.90;;;;;;5009218;28;20267;-75
2022/11/07 02:37:54;;;;;;;13.23;4.37;;;11.90;99.90;;;;;;5013886;28;20233;-75
2022/11/07 02:40:22;;;;;;;12.03;4.50;;;11.90;99.90;;;;;;5006955;28;20218;-74
2022/11/07 02:42:50;;;;;;;12.60;4.03;;;11.80;99.90;;;;;;5023101;28;20305;-76
2022/11/07 02:45:25;;;;;;;8.17;4.30;;;11.80;99.90;;;;;;5008284;28;20754;-73
2022/11/07 02:47:52;;;;;;;8.30;3.97;;;11.80;99.90;;;;;;5022315;28;20998;-74
2022/11/07 02:50:18;;;;;;;11.50;4.30;;;11.80;99.90;;;;;;5021884;28;20289;-74
2022/11/07 02:52:45;;;;;;;9.23;4.17;;;11.80;99.90;;;;;;5023308;28;20305;-75
2022/11/07 02:55:13;;;;;;;10.50;4.47;;;11.80;99.90;;;;;;5019763;28;20249;-73
2022/11/07 02:57:40;;;;;;;9.33;4.10;;;11.80;99.90;;;;;;5020821;28;20747;-77
2022/11/07 03:00:10;;;;;;;9.63;3.80;;;11.80;99.90;;;;;;5023372;28;20201;-74
2022/11/07 03:02:36;;;;;;;9.57;4.00;;;11.80;99.90;;;;;;5009864;28;20205;-74
2022/11/07 03:05:04;;;;;;;9.33;4.20;;;11.80;99.90;;;;;;5022088;28;20233;-75
2022/11/07 03:07:32;;;;;;;8.70;4.87;;;11.80;99.90;;;;;;5024488;28;20301;-75
2022/11/07 03:09:58;;;;;;;10.37;4.83;;;11.80;99.90;;;;;;5023057;28;20662;-76
2022/11/07 03:12:25;;;;;;;11.50;4.77;;;11.90;99.90;;;;;;5008627;28;20705;-75
2022/11/07 03:14:52;;;;;;;11.30;4.90;;;11.80;99.90;;;;;;5022421;28;20271;-74
2022/11/07 03:17:19;;;;;;;13.53;5.10;;;11.70;99.90;;;;;;5022379;28;20202;-75
2022/11/07 03:19:45;;;;;;;11.00;5.30;;;11.70;99.90;;;;;;5022898;28;20684;-74
2022/11/07 03:22:12;;;;;;;15.43;5.53;;;11.70;99.90;;;;;;5024911;28;20245;-73
2022/11/07 03:24:39;;;;;;;11.37;5.00;;;11.70;99.90;;;;;;5005475;28;20580;-73
2022/11/07 03:27:06;;;;;;;15.97;6.20;;;11.60;99.90;;;;;;5018786;28;20213;-75
2022/11/07 03:29:32;;;;;;;9.57;5.10;;;11.60;99.90;;;;;;5003686;28;20647;-74
2022/11/07 03:31:59;;;;;;;10.20;4.60;;;11.60;99.90;;;;;;5028463;28;20205;-77
2022/11/07 03:34:27;;;;;;;11.07;5.00;;;11.60;99.90;;;;;;5023419;28;20561;-74
2022/11/07 03:36:53;;;;;;;8.60;5.03;;;11.60;99.90;;;;;;5021407;28;20729;-75
2022/11/07 03:39:20;;;;;;;13.80;5.10;;;11.60;99.90;;;;;;5022262;28;20292;-75
2022/11/07 03:41:51;;;;;;;12.83;5.23;;;11.70;99.90;;;;;;5001868;28;20202;-75
2022/11/07 03:44:18;;;;;;;15.00;4.90;;;11.70;99.90;;;;;;5019177;28;20236;-74
2022/11/07 03:46:45;;;;;;;15.20;5.77;;;11.60;99.90;;;;;;5020568;28;20218;-75
2022/11/07 03:49:11;;;;;;;10.27;5.00;;;11.60;99.90;;;;;;5021817;28;20206;-73
2022/11/07 03:51:38;;;;;;;11.60;4.47;;;11.60;99.90;;;;;;5020803;28;20254;-72
2022/11/07 03:54:05;;;;;;;11.47;4.40;;;11.70;99.90;;;;;;5025209;28;20693;-73
2022/11/07 03:56:32;;;;;;;11.60;4.40;;;11.60;99.90;;;;;;5020580;28;20638;-74
2022/11/07 03:58:58;;;;;;;9.57;4.97;;;11.60;99.90;;;;;;5021776;28;20205;-74
2022/11/07 04:01:25;;;;;;;14.40;5.13;;;11.50;99.90;;;;;;5019444;28;20233;-74
2022/11/07 04:03:52;;;;;;;10.83;4.23;;;11.50;99.90;;;;;;5020170;28;20218;-73
2022/11/07 04:06:22;;;;;;;12.07;4.93;;;11.50;99.90;;;;;;5004201;28;20940;-73
2022/11/07 04:08:49;;;;;;;12.57;4.43;;;11.40;99.90;;;;;;5027174;28;20972;-75
2022/11/07 04:19:32;;;;;;;11.87;4.90;;;11.50;99.90;;;;;;5022355;28;20220;-73
2022/11/07 04:21:58;;;;;;;14.27;4.70;;;11.50;99.90;;;;;;5011869;28;20572;-73
2022/11/07 04:24:26;;;;;;;10.10;4.67;;;11.60;99.90;;;;;;5029479;28;20666;-74
2022/11/07 04:29:38;;;;;;;15.83;5.17;;;11.70;99.90;;;;;;5030820;28;20241;-73
2022/11/07 04:32:05;;;;;;;11.90;4.27;;;11.70;99.90;;;;;;5030616;28;20993;-75
2022/11/07 04:34:32;;;;;;;8.00;4.07;;;11.70;99.90;;;;;;5025281;28;20209;-73
2022/11/07 04:36:58;;;;;;;11.20;4.83;;;11.70;99.90;;;;;;5022291;28;20223;-74
2022/11/07 04:39:25;;;;;;;14.67;4.70;;;11.70;99.90;;;;;;5005892;28;20206;-74
2022/11/07 04:41:52;;;;;;;14.07;4.30;;;11.70;99.90;;;;;;5026242;28;20209;-75
2022/11/07 04:44:19;;;;;;;13.67;4.90;;;11.70;99.90;;;;;;5017084;28;20308;-73
2022/11/07 04:46:46;;;;;;;15.10;5.13;;;11.60;99.90;;;;;;5022467;28;20289;-73
2022/11/07 04:49:14;;;;;;;7.70;4.27;;;11.60;99.90;;;;;;5009890;28;20211;-74
2022/11/07 04:51:42;;;;;;;12.87;4.93;;;11.60;99.90;;;;;;5022485;28;20225;-73
2022/11/07 04:54:14;;;;;;;12.17;4.73;;;11.60;99.90;;;;;;5025911;28;20289;-74
2022/11/07 04:56:41;;;;;;;10.60;4.83;;;11.60;99.90;;;;;;5022209;28;20242;-75
2022/11/07 04:59:08;;;;;;;15.37;4.60;;;11.60;99.90;;;;;;5022674;28;20326;-74
2022/11/07 05:01:34;;;;;;;15.63;4.37;;;11.60;99.90;;;;;;5028141;28;20210;-74
2022/11/07 05:04:01;;;;;;;20.90;6.17;;;11.60;99.90;;;;;;5010635;28;20212;-75
2022/11/07 05:06:30;;;;;;;15.17;5.23;;;11.70;99.90;;;;;;5025612;28;20225;-74
2022/11/07 05:08:57;;;;;;;14.10;5.97;;;11.60;99.90;;;;;;5021651;28;20293;-73
2022/11/07 05:11:24;;;;;;;19.37;4.93;;;11.70;99.90;;;;;;5025973;28;20596;-75
2022/11/07 05:13:51;;;;;;;12.70;4.50;;;11.70;99.90;;;;;;5019084;28;20214;-73
2022/11/07 05:16:17;;;;;;;15.00;4.73;;;11.70;99.90;;;;;;5024680;28;20293;-75
2022/11/07 05:18:52;;;;;;;13.93;4.40;;;11.70;99.90;;;;;;5022521;28;20297;-74
2022/11/07 05:21:19;;;;;;;15.00;4.27;;;11.60;99.90;;;;;;5022339;28;20267;-75
2022/11/07 05:23:46;;;;;;;11.43;4.93;;;11.70;99.90;;;;;;5025113;28;20271;-75
2022/11/07 05:26:12;;;;;;;14.80;4.83;;;11.70;99.90;;;;;;5021844;28;20241;-74
2022/11/07 05:28:39;;;;;;;12.87;4.13;;;11.70;99.90;;;;;;5019980;28;20215;-74
2022/11/07 05:31:07;;;;;;;18.13;5.10;;;11.80;99.90;;;;;;5023574;28;20290;-74
2022/11/07 05:33:34;;;;;;;13.37;4.70;;;11.80;99.90;;;;;;5022221;28;20210;-75
2022/11/07 05:36:16;;;;;;;12.80;4.83;;;11.80;99.90;;;;;;5005888;28;20305;-75
2022/11/07 05:38:45;;;;;;;13.77;4.47;;;11.90;99.90;;;;;;5019274;28;20215;-74
2022/11/07 05:41:13;;;;;;;13.50;4.60;;;11.80;99.90;;;;;;5021659;28;20346;-75
2022/11/07 05:43:40;;;;;;;10.40;4.60;;;11.90;99.90;;;;;;5020018;28;20645;-74
2022/11/07 05:46:07;;;;;;;15.17;4.30;;;11.90;99.90;;;;;;5025080;28;20657;-74
2022/11/07 05:48:35;;;;;;;19.90;5.00;;;11.90;99.90;;;;;;5023353;28;20218;-73
2022/11/07 05:51:03;;;;;;;12.93;4.90;;;11.90;99.90;;;;;;5007418;28;20387;-74
2022/11/07 05:53:30;;;;;;;17.83;5.20;;;11.90;99.90;;;;;;5002469;28;20288;-74
2022/11/07 05:55:57;;;;;;;13.67;4.63;;;11.90;99.90;;;;;;5020561;28;20201;-73
2022/11/07 05:58:24;;;;;;;13.50;4.60;;;12.00;99.90;;;;;;5026545;28;20269;-73
2022/11/07 06:00:51;;;;;;;12.63;4.50;;;12.00;99.90;;;;;;5005789;28;20671;-73
2022/11/07 06:03:21;;;;;;;22.17;5.00;;;12.00;99.90;;;;;;5004151;28;20214;-73
2022/11/07 06:05:48;;;;;;;12.17;4.33;;;12.10;99.90;;;;;;5023154;28;20316;-73
2022/11/07 06:08:15;;;;;;;11.90;4.53;;;12.10;99.90;;;;;;5023826;28;20675;-74
2022/11/07 06:10:42;;;;;;;11.93;4.17;;;12.10;99.90;;;;;;5004071;28;20670;-73
2022/11/07 06:13:12;;;;;;;15.30;4.13;;;12.10;99.90;;;;;;5002580;28;20615;-74
2022/11/07 06:15:40;;;;;;;15.60;4.50;;;12.10;99.90;;;;;;5020952;28;20289;-73
2022/11/07 06:18:11;;;;;;;13.50;4.10;;;12.10;99.90;;;;;;5024060;28;20285;-73
2022/11/07 06:20:38;;;;;;;11.63;3.97;;;12.20;99.90;;;;;;5021273;28;20577;-75
2022/11/07 06:23:05;;;;;;;12.83;4.23;;;12.20;99.90;;;;;;5021912;28;20197;-74
2022/11/07 06:25:32;;;;;;;13.93;4.67;;;12.20;99.90;;;;;;5010068;28;20623;-73
2022/11/07 06:28:07;;;;;;;14.60;4.67;;;12.20;99.90;;;;;;5020950;28;20289;-76
2022/11/07 06:30:35;;;;;;;17.27;4.63;;;12.20;99.90;;;;;;5027371;28;20210;-75
2022/11/07 06:33:04;;;;;;;17.63;4.60;;;12.20;99.90;;;;;;5017373;28;20297;-75
2022/11/07 06:35:32;;;;;;;8.37;3.90;;;12.20;99.90;;;;;;5023103;28;20245;-74
2022/11/07 06:38:07;;;;;;;12.03;5.53;;;12.30;99.90;;;;;;5008382;28;20612;-75
2022/11/07 06:40:34;;;;;;;15.13;3.93;;;12.30;99.90;;;;;;5020938;28;20205;-75
2022/11/07 06:43:09;;;;;;;15.77;3.77;;;12.30;99.90;;;;;;5022502;28;20210;-75
2022/11/07 06:45:36;;;;;;;13.07;3.97;;;12.30;99.90;;;;;;5010505;28;20256;-74
2022/11/07 06:48:06;;;;;;;14.93;3.93;;;12.30;99.90;;;;;;5022373;28;20202;-73
2022/11/07 06:50:36;;;;;;;12.20;3.60;;;12.30;99.90;;;;;;5022215;28;20704;-76
2022/11/07 06:53:08;;;;;;;9.73;3.90;;;12.30;99.90;;;;;;5002308;28;20322;-76
2022/11/07 06:55:36;;;;;;;15.00;3.73;;;12.30;99.90;;;;;;5017744;28;20317;-73
2022/11/07 06:58:04;;;;;;;16.17;4.20;;;12.30;99.90;;;;;;5024729;28;20305;-75
2022/11/07 07:00:33;;;;;;;16.53;3.53;;;12.30;99.90;;;;;;5022073;28;20324;-74
2022/11/07 07:03:00;;;;;;;11.53;3.30;;;12.20;99.90;;;;;;5000533;28;20198;-74
2022/11/07 07:05:27;;;;;;;14.23;3.40;;;12.30;99.90;;;;;;5020217;28;20356;-74
2022/11/07 07:07:54;;;;;;;13.80;4.20;;;12.30;99.90;;;;;;5018522;28;20225;-74
2022/11/07 07:10:23;;;;;;;13.33;4.30;;;12.40;99.90;;;;;;5021773;28;20546;-74
2022/11/07 07:12:51;;;;;;;11.73;3.70;;;12.40;99.90;;;;;;5019971;28;20241;-75
2022/11/07 07:15:19;;;;;;;14.07;3.53;;;12.40;99.90;;;;;;5020812;28;20214;-75
2022/11/07 07:17:46;;;;;;;12.80;3.53;;;12.40;99.90;;;;;;5020252;28;20312;-75
2022/11/07 07:20:12;;;;;;;11.37;3.70;;;12.40;99.90;;;;;;5019133;28;20224;-74
2022/11/07 07:22:39;;;;;;;23.10;4.73;;;12.40;99.90;;;;;;5021169;28;20249;-75
2022/11/07 07:25:07;;;;;;;11.70;3.87;;;12.50;99.90;;;;;;5025616;28;20710;-74
2022/11/07 07:27:34;;;;;;;12.10;4.50;;;12.50;99.90;;;;;;5020781;28;20224;-75
2022/11/07 07:30:00;;;;;;;13.53;4.10;;;12.50;99.90;;;;;;5024536;28;20276;-75
2022/11/07 07:32:27;;;;;;;11.47;3.37;;;12.50;99.90;;;;;;5021602;28;20300;-75
2022/11/07 07:34:54;;;;;;;15.47;3.80;;;12.50;99.90;;;;;;5008572;28;20301;-75
2022/11/07 07:37:20;;;;;;;13.27;3.53;;;12.60;99.90;;;;;;5020018;28;20250;-74
2022/11/07 07:39:47;;;;;;;20.27;3.77;;;12.50;99.90;;;;;;5020216;28;20252;-74
2022/11/07 07:42:14;;;;;;;15.27;4.63;;;12.60;99.90;;;;;;5020942;28;20207;-74
2022/11/07 07:44:41;;;;;;;10.77;3.43;;;12.60;99.90;;;;;;5025721;28;20217;-74
2022/11/07 07:47:08;;;;;;;16.10;3.30;;;12.60;99.90;;;;;;5019584;28;20329;-74
2022/11/07 07:49:37;;;;;;;11.43;4.00;;;12.70;99.90;;;;;;5008464;28;20248;-74
2022/11/07 07:52:04;;;;;;;17.43;4.83;;;12.70;99.90;;;;;;5025553;28;20221;-74
2022/11/07 07:54:31;;;;;;;11.90;3.53;;;12.70;99.90;;;;;;5024659;28;20193;-74
2022/11/07 07:56:58;;;;;;;9.07;3.93;;;12.70;99.90;;;;;;5024328;28;20315;-74
2022/11/07 07:59:25;;;;;;;18.07;4.30;;;12.70;99.90;;;;;;5026483;28;20612;-74
2022/11/07 08:01:51;;;;;;;9.47;3.47;;;12.80;99.90;;;;;;5024593;28;20202;-76
2022/11/07 08:04:22;;;;;;;15.53;4.37;;;12.70;99.90;;;;;;5022373;28;20217;-74
2022/11/07 08:06:49;;;;;;;11.13;3.50;;;12.80;99.90;;;;;;5009031;28;20401;-74
2022/11/07 08:09:16;;;;;;;11.27;3.60;;;12.80;99.90;;;;;;5023080;28;20276;-73
2022/11/07 08:11:43;;;;;;;18.30;4.17;;;12.80;99.90;;;;;;5027045;28;20257;-75
2022/11/07 08:14:10;;;;;;;16.17;4.27;;;12.80;99.90;;;;;;5021171;28;20201;-74
2022/11/07 08:16:37;;;;;;;15.23;3.80;;;12.90;99.90;;;;;;5026824;28;20315;-74
2022/11/07 08:19:04;;;;;;;12.50;4.60;;;12.90;99.90;;;;;;5024642;28;21151;-74
2022/11/07 08:21:30;;;;;;;11.90;3.43;;;12.90;99.90;;;;;;5023786;28;20264;-76
2022/11/07 08:23:59;;;;;;;11.27;4.17;;;13.00;99.90;;;;;;5027798;28;20206;-75
2022/11/07 08:26:26;;;;;;;12.13;3.73;;;13.00;99.90;;;;;;5021318;28;20673;-74
2022/11/07 08:28:53;;;;;;;13.57;3.73;;;13.10;99.90;;;;;;5021553;28;20316;-73
2022/11/07 08:31:20;;;;;;;12.37;4.23;;;13.10;99.90;;;;;;5015918;28;20205;-75
2022/11/07 08:33:47;;;;;;;12.27;3.73;;;13.20;99.90;;;;;;5021058;28;20202;-75
2022/11/07 08:36:14;;;;;;;12.70;3.77;;;13.20;99.90;;;;;;5021611;28;20228;-73
2022/11/07 08:38:41;;;;;;;13.33;3.63;;;13.20;99.90;;;;;;5006417;28;20199;-73
2022/11/07 08:41:08;;;;;;;11.73;4.07;;;13.20;99.90;;;;;;5026656;28;20194;-74
2022/11/07 08:43:34;;;;;;;12.07;4.00;;;13.30;99.90;;;;;;5004900;28;20285;-73
2022/11/07 08:46:01;;;;;;;8.60;3.27;;;13.30;99.90;;;;;;5022356;28;20227;-74
2022/11/07 08:48:28;;;;;;;14.13;3.90;;;13.50;99.90;;;;;;5020056;28;20702;-73
2022/11/07 08:50:56;;;;;;;13.80;4.63;;;13.80;99.90;;;;;;5023573;28;20358;-72
2022/11/07 08:53:24;;;;;;;16.30;4.57;;;13.60;99.90;;;;;;5009750;28;20289;-72
2022/11/07 08:55:51;;;;;;;10.07;3.70;;;13.70;99.90;;;;;;5025847;28;20205;-74
2022/11/07 08:58:19;;;;;;;9.90;3.43;;;13.70;99.90;;;;;;5023989;28;20226;-72
2022/11/07 09:00:45;;;;;;;12.67;4.00;;;13.70;99.90;;;;;;5027476;28;20351;-72
2022/11/07 09:03:12;;;;;;;10.07;3.50;;;13.80;99.90;;;;;;5021918;28;20607;-73
2022/11/07 09:05:59;;;;;;;10.50;3.60;;;13.80;99.90;;;;;;5021666;28;20230;-74
2022/11/07 09:08:26;;;;;;;12.50;3.70;;;13.90;99.90;;;;;;5024877;28;20198;-72
2022/11/07 09:10:53;;;;;;;14.93;3.73;;;13.80;99.90;;;;;;5010103;28;20305;-75
2022/11/07 09:13:20;;;;;;;11.20;4.10;;;13.80;99.90;;;;;;5025284;28;20239;-75
2022/11/07 09:15:47;;;;;;;13.67;3.37;;;13.90;99.90;;;;;;4996318;28;20210;-75
2022/11/07 09:18:18;;;;;;;15.07;3.43;;;13.90;99.90;;;;;;5025099;28;20584;-73
2022/11/07 09:20:45;;;;;;;8.83;3.30;;;13.90;99.90;;;;;;5029824;28;20301;-74
2022/11/07 09:23:11;;;;;;;11.97;3.43;;;14.00;99.90;;;;;;5026288;28;20648;-73
2022/11/07 09:25:38;;;;;;;10.47;3.60;;;14.00;99.90;;;;;;5025535;28;20229;-74
2022/11/07 09:28:05;;;;;;;12.47;3.40;;;14.10;99.90;;;;;;5024620;28;20212;-76
2022/11/07 09:30:32;;;;;;;11.30;3.03;;;14.10;99.90;;;;;;5027726;28;20290;-73
2022/11/07 09:32:59;;;;;;;16.67;3.57;;;14.10;99.90;;;;;;5023909;28;20291;-73
2022/11/07 09:35:26;;;;;;;11.13;3.63;;;14.00;99.90;;;;;;5026451;28;20209;-73
2022/11/07 09:37:53;;;;;;;13.30;3.30;;;14.10;99.90;;;;;;5025122;28;20400;-73
2022/11/07 09:40:20;;;;;;;12.43;3.47;;;14.00;99.90;;;;;;5024142;28;20637;-74
2022/11/07 09:43:28;;;;;;;12.83;3.90;;;14.10;99.90;;;;;;5023719;28;20237;-73
2022/11/07 09:46:16;;;;;;;8.97;3.30;;;14.10;99.90;;;;;;5023718;28;20245;-73
2022/11/07 09:48:48;;;;;;;10.97;3.40;;;14.10;99.90;;;;;;5026231;28;20734;-73
2022/11/07 09:51:30;;;;;;;11.97;3.33;;;14.10;99.90;;;;;;5026520;28;20240;-73
2022/11/07 09:54:02;;;;;;;10.43;3.70;;;14.20;99.90;;;;;;5024567;28;20285;-74
2022/11/07 09:56:31;;;;;;;15.63;3.63;;;14.20;99.90;;;;;;5006458;28;20238;-74
2022/11/07 09:59:03;;;;;;;13.80;3.80;;;14.20;99.90;;;;;;5024972;28;20304;-73
2022/11/07 10:01:36;;;;;;;23.87;4.37;;;14.20;99.90;;;;;;5022764;28;20240;-74
2022/11/07 10:04:03;;;;;;;10.03;3.33;;;14.30;99.90;;;;;;5026583;28;20198;-74
2022/11/07 10:07:08;;;;;;;8.83;4.10;;;14.50;99.90;;;;;;5024118;28;20788;-73
2022/11/07 10:09:58;;;;;;;11.97;3.63;;;14.50;99.90;;;;;;5007158;28;20229;-72
2022/11/07 10:12:30;;;;;;;8.37;3.47;;;14.50;99.90;;;;;;5022910;28;20292;-74
2022/11/07 10:15:16;;;;;;;13.47;3.90;;;14.40;99.90;;;;;;5008512;28;20212;-72
2022/11/07 10:18:08;;;;;;;11.20;3.55;;;14.60;99.90;;;;;;5022447;28;20308;-73
2022/11/07 10:21:05;;;;;;;11.10;3.90;;;14.80;99.90;;;;;;5022140;28;20234;-75
2022/11/07 10:24:22;;;;;;;10.20;3.33;;;14.60;99.90;;;;;;5024274;28;20202;-75
2022/11/07 10:26:49;;;;;;;13.60;3.67;;;14.70;99.90;;;;;;5022824;28;20240;-75
2022/11/07 10:29:18;;;;;;;14.73;3.87;;;14.70;99.90;;;;;;5026828;28;20267;-72
2022/11/07 10:32:11;;;;;;;16.20;3.53;;;14.70;99.90;;;;;;5026645;28;20205;-73
2022/11/07 10:34:48;;;;;;;11.57;3.63;;;14.80;99.90;;;;;;4988101;28;20200;-75
2022/11/07 10:37:20;;;;;;;11.90;3.72;;;14.70;99.90;;;;;;5019418;28;20214;-73
2022/11/07 10:39:47;;;;;;;11.45;3.58;;;14.70;99.90;;;;;;5007443;28;20598;-74
2022/11/07 10:42:19;;;;;;;9.85;3.63;;;14.70;99.90;;;;;;5025693;28;20601;-73
2022/11/07 10:44:47;;;;;;;11.75;3.55;;;14.90;99.90;;;;;;5024089;28;20233;-74
2022/11/07 10:47:21;;;;;;;12.47;3.83;;;14.70;99.90;;;;;;5020179;28;20257;-75
2022/11/07 10:50:00;;;;;;;11.80;3.73;;;14.80;99.90;;;;;;5021906;28;20666;-77
2022/11/07 10:52:28;;;;;;;12.50;3.70;;;14.80;99.90;;;;;;5022615;28;20229;-75
2022/11/07 10:55:16;;;;;;;11.90;3.70;;;14.80;99.90;;;;;;5026361;28;20237;-76
2022/11/07 10:57:47;;;;;;;8.47;3.93;;;14.80;99.90;;;;;;5021528;28;20284;-73
2022/11/07 11:00:26;;;;;;;11.70;3.67;;;14.70;99.90;;;;;;5027120;28;20197;-74
2022/11/07 11:02:55;;;;;;;13.67;4.13;;;14.70;99.90;;;;;;5002799;28;20201;-75
2022/11/07 11:05:26;;;;;;;10.23;4.20;;;14.70;99.90;;;;;;5022049;28;20198;-74
2022/11/07 11:07:55;;;;;;;9.17;3.97;;;14.80;99.90;;;;;;5023365;28;20602;-74
2022/11/07 11:10:36;;;;;;;11.32;3.95;;;14.80;99.90;;;;;;5008404;28;20199;-75
2022/11/07 11:13:03;;;;;;;10.15;4.28;;;14.90;99.90;;;;;;5020376;28;20292;-76
2022/11/07 11:15:30;;;;;;;14.82;4.40;;;14.90;99.90;;;;;;5021933;28;21103;-75
2022/11/07 11:18:13;;;;;;;10.30;4.22;;;15.00;99.90;;;;;;5020453;28;20213;-73
2022/11/07 11:20:54;;;;;;;14.90;4.40;;;15.00;99.90;;;;;;5017556;28;20213;-74
2022/11/07 11:23:25;;;;;;;12.35;3.88;;;15.00;99.90;;;;;;5017710;28;20215;-73
2022/11/07 11:25:59;;;;;;;16.02;4.13;;;15.00;99.90;;;;;;5010953;28;20226;-74
2022/11/07 11:28:49;;;;;;;10.48;3.80;;;14.80;99.90;;;;;;5021101;28;20202;-74
2022/11/07 11:31:23;;;;;;;10.75;3.45;;;15.10;99.90;;;;;;5017590;28;20222;-72
2022/11/07 11:33:57;;;;;;;9.98;3.80;;;15.10;99.90;;;;;;5011968;28;20209;-73
2022/11/07 11:36:29;;;;;;;12.95;4.15;;;15.20;99.90;;;;;;5019355;28;20274;-73
2022/11/07 11:38:59;;;;;;;10.13;3.85;;;15.20;99.90;;;;;;5020429;28;20244;-74
2022/11/07 11:41:50;;;;;;;10.88;4.15;;;15.30;99.90;;;;;;5009125;28;20210;-74
2022/11/07 11:44:43;;;;;;;7.13;3.70;;;15.40;99.90;;;;;;5005471;28;20202;-73
2022/11/07 11:47:15;;;;;;;12.90;3.78;;;15.40;99.90;;;;;;4995647;28;20229;-73
2022/11/07 11:49:59;;;;;;;13.90;4.32;;;15.50;99.90;;;;;;5023859;28;20284;-74
2022/11/07 11:52:30;;;;;;;14.38;3.78;;;15.10;99.90;;;;;;5004407;28;20757;-71
2022/11/07 11:54:59;;;;;;;15.90;3.90;;;15.10;99.90;;;;;;4998803;28;20229;-74
2022/11/07 11:57:31;;;;;;;13.57;4.95;;;15.10;99.90;;;;;;5025281;28;20222;-74
2022/11/07 12:00:19;;;;;;;10.85;4.78;;;15.20;99.90;;;;;;5020552;28;20235;-73
2022/11/07 12:02:55;;;;;;;15.10;4.20;;;15.20;99.90;;;;;;5019349;28;20341;-73
2022/11/07 12:05:37;;;;;;;7.22;3.60;;;15.20;99.90;;;;;;5021044;28;20210;-73
2022/11/07 12:08:33;;;;;;;11.10;4.38;;;15.20;99.90;;;;;;5020263;28;20233;-73
2022/11/07 12:11:09;;;;;;;18.52;5.35;;;15.20;99.90;;;;;;5024109;28;20212;-74
2022/11/07 12:13:54;;;;;;;10.65;4.00;;;15.20;99.90;;;;;;5020633;28;20369;-74
2022/11/07 12:16:39;;;;;;;14.85;4.93;;;15.20;99.90;;;;;;5019973;28;20202;-73
2022/11/07 12:19:28;;;;;;;11.73;4.57;;;15.20;99.90;;;;;;5020536;28;20727;-72
2022/11/07 12:22:07;;;;;;;11.00;4.30;;;15.20;99.90;;;;;;5024776;28;20209;-73
2022/11/07 12:24:40;;;;;;;9.57;4.13;;;15.20;99.90;;;;;;5021494;28;20209;-73
2022/11/07 12:27:31;;;;;;;11.75;4.50;;;15.20;99.90;;;;;;5014245;28;20346;-73
2022/11/07 12:30:07;;;;;;;15.93;5.35;;;15.20;99.90;;;;;;5026379;28;20221;-73
2022/11/07 12:32:48;;;;;;;16.98;5.72;;;15.20;99.90;;;;;;5023836;28;20275;-73
2022/11/07 12:35:40;;;;;;;17.85;5.30;;;15.20;99.90;;;;;;5024673;28;20260;-72
2022/11/07 12:38:33;;;;;;;12.52;3.92;;;15.20;99.90;;;;;;5023382;28;20207;-74
2022/11/07 12:41:16;;;;;;;8.75;3.97;;;15.30;99.90;;;;;;5022399;28;20207;-73
2022/11/07 12:43:45;;;;;;;17.80;5.53;;;15.30;99.90;;;;;;5023850;28;20264;-73
2022/11/07 12:46:32;;;;;;;16.95;4.32;;;15.30;99.90;;;;;;5022728;28;20296;-73
2022/11/07 12:49:25;;;;;;;13.05;4.53;;;15.40;99.90;;;;;;5026077;28;20208;-73
2022/11/07 12:52:22;;;;;;;15.77;4.40;;;15.40;99.90;;;;;;5021449;28;20226;-73
2022/11/07 12:55:18;;;;;;;15.55;3.90;;;15.40;99.90;;;;;;5020131;28;20238;-73
2022/11/07 12:57:48;;;;;;;13.55;4.38;;;15.40;99.90;;;;;;5022830;28;20257;-73
2022/11/07 13:00:23;;;;;;;11.20;3.63;;;15.30;99.90;;;;;;5025610;28;20202;-74
2022/11/07 13:03:28;;;;;;;11.23;3.50;;;15.40;99.90;;;;;;5025489;28;20336;-73
2022/11/07 13:06:01;;;;;;;11.18;4.20;;;15.30;99.90;;;;;;5022927;28;20655;-74
2022/11/07 13:08:58;;;;;;;15.68;4.18;;;15.30;99.90;;;;;;5020738;28;20206;-73
2022/11/07 13:11:44;;;;;;;14.07;4.43;;;15.30;99.90;;;;;;4991537;28;20214;-73
2022/11/07 13:14:21;;;;;;;11.60;3.95;;;15.30;99.90;;;;;;5006062;28;20252;-73